(°C)
11°
10°
10°
10°
(°C)
ONO
O
O
O
O
O
O
(km/h)
15-27
15-29
16-26
16-26
16-26
16-26
17-27
(mm)
0
0
0
0
0
0
0
(%)
4
4
4
0
5
5
5

Elevação do sol

/ -15.7°
sun-icon
UV 2
05:06
21:32
Minguante côncava (349°)
04:33
20:46

METAR para Bordenau (ETNW)

Hora Condições Temperatura/
Ponto de condensação
Vento Visibilidade Tempo Nuvens Pressão Mudança Bruto
VFR 11°C / 6°C 280º 11kt >10km - Scattered Clouds 2700ft
Broken Clouds 5000ft
1015 - ETNW 282220Z 28011KT 9999 SCT027 BKN050 11/06 Q1015 BLU
VFR 11°C / 6°C 300º 11kt >10km - Few Clouds 3300ft
Broken Clouds 6000ft
1015 - ETNW 282120Z 30011KT 9999 FEW033 BKN060 11/06 Q1015 BLU
VFR 11°C / 6°C 300º 10kt >10km - Few Clouds 3700ft
Broken Clouds 7000ft
1016 - ETNW 282020Z 30010KT 9999 FEW037 BKN070 11/06 Q1016 BLU
VFR 11°C / 5°C 310º 11kt >10km - Few Clouds 4300ft
Scattered Clouds 7000ft
1016 - ETNW 281920Z 31011KT 9999 FEW043 SCT070 11/05 Q1016 BLU+
VFR 12°C / 4°C 320º 15kt >10km - Few Clouds 4200ft
Scattered Clouds 7000ft
1016 - ETNW 281820Z 32015KT 9999 FEW042 SCT070 12/04 Q1016 BLU+
VFR 13°C / 4°C 320º 14kt >10km - Few Clouds 4400ft
Scattered Clouds 7000ft
1016 - ETNW 281720Z 32014KT 9999 FEW044 SCT070 13/04 Q1016 BLU+
VFR 14°C / 4°C 320º 19kt >10km - Few Clouds 4900ft
Scattered Clouds 7000ft
1016 - ETNW 281620Z 32019KT 9999 FEW049 SCT070 14/04 Q1016 BLU+
VFR 15°C / 4°C 310º 17kt >10km - Few Clouds 4500ft
Scattered Clouds 6800ft
1016 - ETNW 281520Z 31017KT 9999 FEW045 SCT068 15/04 Q1016 BLU+
VFR 15°C / 4°C 310º 20kt >10km - Scattered Clouds 4500ft
Scattered Clouds 6000ft
1016 - ETNW 281420Z 31020KT 9999 SCT045 SCT060 15/04 Q1016 BLU+
VFR 14°C / 5°C 320º 18kt Gust 28kt >10km - Few Clouds 3600ft
Scattered Clouds 7000ft
1016 - ETNW 281320Z 32018G28KT 9999 FEW036 SCT070 14/05 Q1016 BLU+
VFR 15°C / 6°C 310º 19kt >10km in the Vicinity Showers Vertical Visibility of 0ft.
Scattered Clouds 7000ft
1016 - ETNW 281220Z 31019KT 9999 VCSH FEW032CB SCT070 15/06 Q1016 BLU+
VFR 15°C / 6°C 300º 20kt >10km in the Vicinity Showers Vertical Visibility of 0ft.
Few Clouds 3000ft
Scattered Clouds 7000ft
1016 - ETNW 281120Z 30020KT 9999 VCSH FEW015 FEW030CB SCT070 15/06 Q1016 BLU+
VFR 12°C / 10°C 290º 11kt >10km in the Vicinity Showers Vertical Visibility of 0ft.
Few Clouds 2500ft
Broken Clouds 6000ft
1017 - ETNW 281020Z 29011KT 9999 VCSH FEW015 FEW025CB BKN060 12/10 Q1017 RESHRA BLU
VFR 10°C / 9°C 290º 11kt 9000m Light Showers Rain 3.00mm precipitation Vertical Visibility of 0ft.
Scattered Clouds 2500ft
Broken Clouds 6000ft
1017 - ETNW 281005Z 29011KT 9000 -SHRA FEW015 SCT025CB BKN060 10/09 Q1017 RESHRA BLU
IFR 11°C / 8°C 310º 14kt Gust 27kt 3500m Showers Rain 3.00mm precipitation Vertical Visibility of 0ft.
Broken Clouds 2000ft
1017 - ETNW 280945Z 31014G27KT 3500 SHRA FEW015 BKN020CB 11/08 Q1017 YLO
VFR 14°C / 7°C 300º 16kt >10km in the Vicinity Showers Vertical Visibility of 0ft.
Broken Clouds 6000ft
1017 - ETNW 280920Z 30016KT 9999 VCSH SCT024CB BKN060 14/07 Q1017 BLU
VFR 13°C / 7°C 300º 17kt >10km - Scattered Clouds 2300ft
Broken Clouds 5000ft
1017 - ETNW 280820Z 30017KT 9999 SCT023 BKN050 13/07 Q1017 BLU
VFR 12°C / 6°C 290º 15kt >10km - Scattered Clouds 2200ft
Broken Clouds 5000ft
1017 - ETNW 280720Z 29015KT 9999 SCT022 BKN050 12/06 Q1017 BLU
VFR 11°C / 7°C 290º 19kt >10km in the Vicinity Showers Vertical Visibility of 0ft.
Broken Clouds 5000ft
1016 - ETNW 280620Z 29019KT 9999 VCSH SCT018TCU BKN050 11/07 Q1016 BLU
VFR 10°C / 7°C 280º 17kt Gust 27kt >10km - Few Clouds 1800ft
Scattered Clouds 2000ft
Broken Clouds 5000ft
1016 - ETNW 280520Z 28017G27KT 9999 FEW018 SCT020 BKN050 10/07 Q1016 BLU
VFR 10°C / 7°C 280º 15kt >10km Light Showers Rain 3.00mm precipitation Vertical Visibility of 0ft.
Scattered Clouds 2500ft
Broken Clouds 5000ft
1016 - ETNW 280420Z 28015KT 9999 -SHRA FEW015 SCT025CB BKN050 10/07 Q1016 BLU
VFR 10°C / 7°C 280º 13kt >10km - Few Clouds 1400ft
Few Clouds 1700ft
1016 - ETNW 280320Z 28013KT 9999 FEW014 FEW017CB 10/07 Q1016 BLU+
VFR 10°C / 8°C 280º 14kt >10km - Few Clouds 1400ft
Few Clouds 1700ft
Scattered Clouds 2400ft
1015 - ETNW 280250Z 28014KT 9999 FEW014 FEW017CB SCT024 10/08 Q1015 BLU+
MVFR 10°C / 8°C 280º 13kt >10km Light Showers Rain 3.00mm precipitation Vertical Visibility of 0ft.
Few Clouds 1700ft
Broken Clouds 2200ft
1016 - ETNW 280220Z 28013KT 9999 -SHRA FEW014 FEW017CB BKN022 10/08 Q1016 WHT

VFR

11°C / 6°C

[Mais]
Vento 280º 11kt
Visibilidade >10km
Tempo -
Nuvens Scattered Clouds 2700ft
Broken Clouds 5000ft
Pressão 1015
Mudança -
Bruto ETNW 282220Z 28011KT 9999 SCT027 BKN050 11/06 Q1015 BLU

VFR

11°C / 6°C

[Mais]
Vento 300º 11kt
Visibilidade >10km
Tempo -
Nuvens Few Clouds 3300ft
Broken Clouds 6000ft
Pressão 1015
Mudança -
Bruto ETNW 282120Z 30011KT 9999 FEW033 BKN060 11/06 Q1015 BLU

VFR

11°C / 6°C

[Mais]
Vento 300º 10kt
Visibilidade >10km
Tempo -
Nuvens Few Clouds 3700ft
Broken Clouds 7000ft
Pressão 1016
Mudança -
Bruto ETNW 282020Z 30010KT 9999 FEW037 BKN070 11/06 Q1016 BLU

VFR

11°C / 5°C

[Mais]
Vento 310º 11kt
Visibilidade >10km
Tempo -
Nuvens Few Clouds 4300ft
Scattered Clouds 7000ft
Pressão 1016
Mudança -
Bruto ETNW 281920Z 31011KT 9999 FEW043 SCT070 11/05 Q1016 BLU+

VFR

12°C / 4°C

[Mais]
Vento 320º 15kt
Visibilidade >10km
Tempo -
Nuvens Few Clouds 4200ft
Scattered Clouds 7000ft
Pressão 1016
Mudança -
Bruto ETNW 281820Z 32015KT 9999 FEW042 SCT070 12/04 Q1016 BLU+

VFR

13°C / 4°C

[Mais]
Vento 320º 14kt
Visibilidade >10km
Tempo -
Nuvens Few Clouds 4400ft
Scattered Clouds 7000ft
Pressão 1016
Mudança -
Bruto ETNW 281720Z 32014KT 9999 FEW044 SCT070 13/04 Q1016 BLU+

VFR

14°C / 4°C

[Mais]
Vento 320º 19kt
Visibilidade >10km
Tempo -
Nuvens Few Clouds 4900ft
Scattered Clouds 7000ft
Pressão 1016
Mudança -
Bruto ETNW 281620Z 32019KT 9999 FEW049 SCT070 14/04 Q1016 BLU+

VFR

15°C / 4°C

[Mais]
Vento 310º 17kt
Visibilidade >10km
Tempo -
Nuvens Few Clouds 4500ft
Scattered Clouds 6800ft
Pressão 1016
Mudança -
Bruto ETNW 281520Z 31017KT 9999 FEW045 SCT068 15/04 Q1016 BLU+

VFR

15°C / 4°C

[Mais]
Vento 310º 20kt
Visibilidade >10km
Tempo -
Nuvens Scattered Clouds 4500ft
Scattered Clouds 6000ft
Pressão 1016
Mudança -
Bruto ETNW 281420Z 31020KT 9999 SCT045 SCT060 15/04 Q1016 BLU+

VFR

14°C / 5°C

[Mais]
Vento 320º 18kt Gust 28kt
Visibilidade >10km
Tempo -
Nuvens Few Clouds 3600ft
Scattered Clouds 7000ft
Pressão 1016
Mudança -
Bruto ETNW 281320Z 32018G28KT 9999 FEW036 SCT070 14/05 Q1016 BLU+

VFR

15°C / 6°C

[Mais]
Vento 310º 19kt
Visibilidade >10km
Tempo in the Vicinity Showers
Nuvens Vertical Visibility of 0ft.
Scattered Clouds 7000ft
Pressão 1016
Mudança -
Bruto ETNW 281220Z 31019KT 9999 VCSH FEW032CB SCT070 15/06 Q1016 BLU+

VFR

15°C / 6°C

[Mais]
Vento 300º 20kt
Visibilidade >10km
Tempo in the Vicinity Showers
Nuvens Vertical Visibility of 0ft.
Few Clouds 3000ft
Scattered Clouds 7000ft
Pressão 1016
Mudança -
Bruto ETNW 281120Z 30020KT 9999 VCSH FEW015 FEW030CB SCT070 15/06 Q1016 BLU+

VFR

12°C / 10°C

[Mais]
Vento 290º 11kt
Visibilidade >10km
Tempo in the Vicinity Showers
Nuvens Vertical Visibility of 0ft.
Few Clouds 2500ft
Broken Clouds 6000ft
Pressão 1017
Mudança -
Bruto ETNW 281020Z 29011KT 9999 VCSH FEW015 FEW025CB BKN060 12/10 Q1017 RESHRA BLU

VFR

10°C / 9°C

[Mais]
Vento 290º 11kt
Visibilidade 9000m
Tempo Light Showers Rain 3.00mm precipitation
Nuvens Vertical Visibility of 0ft.
Scattered Clouds 2500ft
Broken Clouds 6000ft
Pressão 1017
Mudança -
Bruto ETNW 281005Z 29011KT 9000 -SHRA FEW015 SCT025CB BKN060 10/09 Q1017 RESHRA BLU

IFR

11°C / 8°C

[Mais]
Vento 310º 14kt Gust 27kt
Visibilidade 3500m
Tempo Showers Rain 3.00mm precipitation
Nuvens Vertical Visibility of 0ft.
Broken Clouds 2000ft
Pressão 1017
Mudança -
Bruto ETNW 280945Z 31014G27KT 3500 SHRA FEW015 BKN020CB 11/08 Q1017 YLO

VFR

14°C / 7°C

[Mais]
Vento 300º 16kt
Visibilidade >10km
Tempo in the Vicinity Showers
Nuvens Vertical Visibility of 0ft.
Broken Clouds 6000ft
Pressão 1017
Mudança -
Bruto ETNW 280920Z 30016KT 9999 VCSH SCT024CB BKN060 14/07 Q1017 BLU

VFR

13°C / 7°C

[Mais]
Vento 300º 17kt
Visibilidade >10km
Tempo -
Nuvens Scattered Clouds 2300ft
Broken Clouds 5000ft
Pressão 1017
Mudança -
Bruto ETNW 280820Z 30017KT 9999 SCT023 BKN050 13/07 Q1017 BLU

VFR

12°C / 6°C

[Mais]
Vento 290º 15kt
Visibilidade >10km
Tempo -
Nuvens Scattered Clouds 2200ft
Broken Clouds 5000ft
Pressão 1017
Mudança -
Bruto ETNW 280720Z 29015KT 9999 SCT022 BKN050 12/06 Q1017 BLU

VFR

11°C / 7°C

[Mais]
Vento 290º 19kt
Visibilidade >10km
Tempo in the Vicinity Showers
Nuvens Vertical Visibility of 0ft.
Broken Clouds 5000ft
Pressão 1016
Mudança -
Bruto ETNW 280620Z 29019KT 9999 VCSH SCT018TCU BKN050 11/07 Q1016 BLU

VFR

10°C / 7°C

[Mais]
Vento 280º 17kt Gust 27kt
Visibilidade >10km
Tempo -
Nuvens Few Clouds 1800ft
Scattered Clouds 2000ft
Broken Clouds 5000ft
Pressão 1016
Mudança -
Bruto ETNW 280520Z 28017G27KT 9999 FEW018 SCT020 BKN050 10/07 Q1016 BLU

VFR

10°C / 7°C

[Mais]
Vento 280º 15kt
Visibilidade >10km
Tempo Light Showers Rain 3.00mm precipitation
Nuvens Vertical Visibility of 0ft.
Scattered Clouds 2500ft
Broken Clouds 5000ft
Pressão 1016
Mudança -
Bruto ETNW 280420Z 28015KT 9999 -SHRA FEW015 SCT025CB BKN050 10/07 Q1016 BLU

VFR

10°C / 7°C

[Mais]
Vento 280º 13kt
Visibilidade >10km
Tempo -
Nuvens Few Clouds 1400ft
Few Clouds 1700ft
Pressão 1016
Mudança -
Bruto ETNW 280320Z 28013KT 9999 FEW014 FEW017CB 10/07 Q1016 BLU+

VFR

10°C / 8°C

[Mais]
Vento 280º 14kt
Visibilidade >10km
Tempo -
Nuvens Few Clouds 1400ft
Few Clouds 1700ft
Scattered Clouds 2400ft
Pressão 1015
Mudança -
Bruto ETNW 280250Z 28014KT 9999 FEW014 FEW017CB SCT024 10/08 Q1015 BLU+

MVFR

10°C / 8°C

[Mais]
Vento 280º 13kt
Visibilidade >10km
Tempo Light Showers Rain 3.00mm precipitation
Nuvens Vertical Visibility of 0ft.
Few Clouds 1700ft
Broken Clouds 2200ft
Pressão 1016
Mudança -
Bruto ETNW 280220Z 28013KT 9999 -SHRA FEW014 FEW017CB BKN022 10/08 Q1016 WHT

TAF para Bordenau (ETNW)

From till


From till Wind 290º 10kt. Visibility 10km or more. Scattered Clouds 3000ft. Broken Clouds 6000ft.
Temporarly from till Wind 310º 12kt. Visibility 8000m. Light Rain . Broken Clouds 800ft.
With 30% probability, from till Wind 300º 12kt. Gust 22kt. Visibility 4000m. Showers Rain . Broken Clouds 1000ft. Broken Clouds 3000ft.

Bruto: TAF ETNW 282201Z 2823/2923 29010KT 9999 NSW SCT030 BKN060 TEMPO 2901/2909 31012KT 8000 -RA BKN008 PROB30 2910/2918 30012G22KT 4000 SHRA BKN010 BKN030CB BY ETGL

rainNOW: Pluviosidade agoracast por Bordenau e arredores (raio de 25km)

0.0 mm
0.0 mm
0.0 mm
0.0 mm
0.0 mm
0.0 mm
0.0 mm
0.0 mm
0.0 mm
0.0 mm
0.0 mm
0.0 mm

Radar para Bordenau

Chuvisco
Leve
Moderado
Forte
Muito forte
Granizo

O marcador do lugar é colocado em Bordenau. Esta animação mostra o radar de precipitação para a última hora, assim como a 2h previsão. A queda de neve pode ser invisível para o radar. A intensidade da precipitação é codificada por cores, variando do azul claro ao laranja.
Copyright 2022 Deutscher Wetterdienst / meteoblue.

Imagens atuais de satélite e precipitação para Bordenau, Alemanha

O marcador de lugar é colocado em Bordenau. [Mais]

A imagem de satélite em tempo real combina luz visível durante o dia com radiação infravermelha durante a noite. À noite, a imagem não é escura, pois a radiação infravermelha pode detectar diferenças de temperatura. Infelizmente, nuvens baixas e neblina são difíceis de distinguir das temperaturas do solo e, portanto, podem ser quase invisíveis durante a noite. As imagens de satélite Meteosat para a Europa são atualizadas em tempo real a cada 5 minutos. GOES-16/GOES-17 ( América do Norte e do Sul) e Himawari (Ásia) são atualizadas a cada 10 minutos.

A precipitação é estimada por radares e satélites. A estimativa da precipitação por satélites é menos precisa durante a noite que durante o dia. Cruzes laranjas identificam lugares onde relâmpagos foram detetados (em Europa).

Copyright 2022 EUMETSAT / meteoblue. Dados de relâmpagos fornecidos por nowcast.

Voltar ao início